sensor_id;sensor_type;location;lat;lon;timestamp;P1;durP1;ratioP1;P2;durP2;ratioP2
75358;SDS011;64046;51.978;5.934;2023-04-01T00:02:10;6.30;;;1.85;;
75358;SDS011;64046;51.978;5.934;2023-04-01T00:04:39;5.05;;;1.85;;
75358;SDS011;64046;51.978;5.934;2023-04-01T00:07:09;5.57;;;1.58;;
75358;SDS011;64046;51.978;5.934;2023-04-01T00:09:38;5.53;;;2.35;;
75358;SDS011;64046;51.978;5.934;2023-04-01T00:12:07;6.10;;;2.80;;
75358;SDS011;64046;51.978;5.934;2023-04-01T00:14:39;6.15;;;2.30;;
75358;SDS011;64046;51.978;5.934;2023-04-01T00:17:08;6.88;;;3.08;;
75358;SDS011;64046;51.978;5.934;2023-04-01T00:19:37;4.55;;;2.05;;
75358;SDS011;64046;51.978;5.934;2023-04-01T00:22:07;3.28;;;1.75;;
75358;SDS011;64046;51.978;5.934;2023-04-01T00:24:37;4.65;;;1.55;;
75358;SDS011;64046;51.978;5.934;2023-04-01T00:27:07;5.18;;;2.10;;
75358;SDS011;64046;51.978;5.934;2023-04-01T00:29:41;2.55;;;1.73;;
75358;SDS011;64046;51.978;5.934;2023-04-01T00:32:10;3.63;;;1.70;;
75358;SDS011;64046;51.978;5.934;2023-04-01T00:34:40;3.22;;;2.10;;
75358;SDS011;64046;51.978;5.934;2023-04-01T00:37:10;4.63;;;1.90;;
75358;SDS011;64046;51.978;5.934;2023-04-01T00:39:39;6.63;;;2.13;;
75358;SDS011;64046;51.978;5.934;2023-04-01T00:42:08;3.33;;;2.42;;
75358;SDS011;64046;51.978;5.934;2023-04-01T00:44:42;3.03;;;1.95;;
75358;SDS011;64046;51.978;5.934;2023-04-01T00:47:14;7.10;;;3.08;;
75358;SDS011;64046;51.978;5.934;2023-04-01T00:49:45;5.47;;;2.60;;
75358;SDS011;64046;51.978;5.934;2023-04-01T00:52:16;4.53;;;2.08;;
75358;SDS011;64046;51.978;5.934;2023-04-01T00:54:49;5.88;;;2.83;;
75358;SDS011;64046;51.978;5.934;2023-04-01T00:57:23;3.75;;;2.58;;
75358;SDS011;64046;51.978;5.934;2023-04-01T01:00:01;4.43;;;2.58;;
75358;SDS011;64046;51.978;5.934;2023-04-01T01:02:33;6.78;;;3.58;;
75358;SDS011;64046;51.978;5.934;2023-04-01T01:05:04;6.32;;;3.13;;
75358;SDS011;64046;51.978;5.934;2023-04-01T01:07:35;6.03;;;3.60;;
75358;SDS011;64046;51.978;5.934;2023-04-01T01:10:16;7.80;;;3.53;;
75358;SDS011;64046;51.978;5.934;2023-04-01T01:12:48;5.63;;;3.90;;
75358;SDS011;64046;51.978;5.934;2023-04-01T01:15:26;7.90;;;4.10;;
75358;SDS011;64046;51.978;5.934;2023-04-01T01:18:02;7.40;;;4.03;;
75358;SDS011;64046;51.978;5.934;2023-04-01T01:20:42;10.05;;;5.75;;
75358;SDS011;64046;51.978;5.934;2023-04-01T01:29:31;8.50;;;5.60;;
75358;SDS011;64046;51.978;5.934;2023-04-01T01:32:17;7.65;;;4.43;;
75358;SDS011;64046;51.978;5.934;2023-04-01T01:35:09;8.15;;;5.45;;
75358;SDS011;64046;51.978;5.934;2023-04-01T01:37:45;7.07;;;5.38;;
75358;SDS011;64046;51.978;5.934;2023-04-01T01:40:18;8.48;;;4.97;;
75358;SDS011;64046;51.978;5.934;2023-04-01T01:42:50;11.35;;;7.30;;
75358;SDS011;64046;51.978;5.934;2023-04-01T01:45:22;6.68;;;5.13;;
75358;SDS011;64046;51.978;5.934;2023-04-01T01:47:55;9.82;;;6.18;;
75358;SDS011;64046;51.978;5.934;2023-04-01T01:50:27;7.47;;;5.05;;
75358;SDS011;64046;51.978;5.934;2023-04-01T01:53:04;8.65;;;5.40;;
75358;SDS011;64046;51.978;5.934;2023-04-01T01:55:36;6.60;;;5.00;;
75358;SDS011;64046;51.978;5.934;2023-04-01T01:58:08;9.10;;;6.50;;
75358;SDS011;64046;51.978;5.934;2023-04-01T02:00:43;9.57;;;5.22;;
75358;SDS011;64046;51.978;5.934;2023-04-01T02:03:16;7.55;;;5.00;;
75358;SDS011;64046;51.978;5.934;2023-04-01T02:05:52;9.93;;;6.15;;
75358;SDS011;64046;51.978;5.934;2023-04-01T02:08:25;6.50;;;5.20;;
75358;SDS011;64046;51.978;5.934;2023-04-01T02:10:58;8.85;;;5.03;;
75358;SDS011;64046;51.978;5.934;2023-04-01T02:13:35;8.98;;;5.00;;
75358;SDS011;64046;51.978;5.934;2023-04-01T02:16:11;10.13;;;5.00;;
75358;SDS011;64046;51.978;5.934;2023-04-01T02:18:44;8.57;;;3.88;;
75358;SDS011;64046;51.978;5.934;2023-04-01T02:21:20;10.30;;;3.90;;
75358;SDS011;64046;51.978;5.934;2023-04-01T02:23:51;11.25;;;4.70;;
75358;SDS011;64046;51.978;5.934;2023-04-01T02:26:24;9.57;;;4.20;;
75358;SDS011;64046;51.978;5.934;2023-04-01T02:28:54;6.47;;;3.90;;
75358;SDS011;64046;51.978;5.934;2023-04-01T02:31:25;4.97;;;3.33;;
75358;SDS011;64046;51.978;5.934;2023-04-01T02:33:55;9.68;;;4.40;;
75358;SDS011;64046;51.978;5.934;2023-04-01T02:36:27;8.70;;;3.78;;
75358;SDS011;64046;51.978;5.934;2023-04-01T02:38:57;6.22;;;2.67;;
75358;SDS011;64046;51.978;5.934;2023-04-01T02:41:30;9.65;;;3.72;;
75358;SDS011;64046;51.978;5.934;2023-04-01T02:43:59;11.32;;;3.83;;
75358;SDS011;64046;51.978;5.934;2023-04-01T02:46:28;11.57;;;4.28;;
75358;SDS011;64046;51.978;5.934;2023-04-01T02:48:57;10.30;;;4.03;;
75358;SDS011;64046;51.978;5.934;2023-04-01T02:51:29;8.45;;;3.67;;
75358;SDS011;64046;51.978;5.934;2023-04-01T02:53:59;6.30;;;3.28;;
75358;SDS011;64046;51.978;5.934;2023-04-01T02:56:28;7.53;;;3.25;;
75358;SDS011;64046;51.978;5.934;2023-04-01T02:58:57;9.18;;;3.58;;
75358;SDS011;64046;51.978;5.934;2023-04-01T03:01:26;11.30;;;3.78;;
75358;SDS011;64046;51.978;5.934;2023-04-01T03:03:55;9.75;;;3.60;;
75358;SDS011;64046;51.978;5.934;2023-04-01T03:06:25;7.40;;;3.45;;
75358;SDS011;64046;51.978;5.934;2023-04-01T03:08:57;4.53;;;3.08;;
75358;SDS011;64046;51.978;5.934;2023-04-01T03:11:26;4.15;;;2.53;;
75358;SDS011;64046;51.978;5.934;2023-04-01T03:13:55;5.03;;;3.00;;
75358;SDS011;64046;51.978;5.934;2023-04-01T03:16:24;3.65;;;2.60;;
75358;SDS011;64046;51.978;5.934;2023-04-01T03:18:56;3.58;;;2.13;;
75358;SDS011;64046;51.978;5.934;2023-04-01T03:21:27;2.70;;;2.15;;
75358;SDS011;64046;51.978;5.934;2023-04-01T03:23:59;2.38;;;1.95;;
75358;SDS011;64046;51.978;5.934;2023-04-01T03:26:29;4.60;;;2.50;;
75358;SDS011;64046;51.978;5.934;2023-04-01T03:28:58;3.63;;;3.10;;
75358;SDS011;64046;51.978;5.934;2023-04-01T03:31:27;3.72;;;2.22;;
75358;SDS011;64046;51.978;5.934;2023-04-01T03:33:57;3.63;;;2.60;;
75358;SDS011;64046;51.978;5.934;2023-04-01T03:36:27;3.90;;;2.42;;
75358;SDS011;64046;51.978;5.934;2023-04-01T03:38:58;3.50;;;2.35;;
75358;SDS011;64046;51.978;5.934;2023-04-01T03:41:36;3.13;;;2.53;;
75358;SDS011;64046;51.978;5.934;2023-04-01T03:44:06;3.83;;;2.70;;
75358;SDS011;64046;51.978;5.934;2023-04-01T03:46:35;3.45;;;2.80;;
75358;SDS011;64046;51.978;5.934;2023-04-01T03:49:06;3.53;;;2.80;;
75358;SDS011;64046;51.978;5.934;2023-04-01T03:51:37;4.47;;;2.90;;
75358;SDS011;64046;51.978;5.934;2023-04-01T03:54:09;3.72;;;2.78;;
75358;SDS011;64046;51.978;5.934;2023-04-01T03:56:39;2.53;;;2.13;;
75358;SDS011;64046;51.978;5.934;2023-04-01T03:59:08;4.88;;;2.83;;
75358;SDS011;64046;51.978;5.934;2023-04-01T04:01:37;3.08;;;2.55;;
75358;SDS011;64046;51.978;5.934;2023-04-01T04:04:07;3.95;;;3.10;;
75358;SDS011;64046;51.978;5.934;2023-04-01T04:06:36;4.05;;;3.00;;
75358;SDS011;64046;51.978;5.934;2023-04-01T04:09:05;6.55;;;4.05;;
75358;SDS011;64046;51.978;5.934;2023-04-01T04:11:37;3.50;;;2.80;;
75358;SDS011;64046;51.978;5.934;2023-04-01T04:14:06;3.35;;;2.53;;
75358;SDS011;64046;51.978;5.934;2023-04-01T04:16:36;6.00;;;3.33;;
75358;SDS011;64046;51.978;5.934;2023-04-01T04:19:05;3.72;;;2.53;;
75358;SDS011;64046;51.978;5.934;2023-04-01T04:21:35;3.60;;;2.80;;
75358;SDS011;64046;51.978;5.934;2023-04-01T04:24:04;6.88;;;4.13;;
75358;SDS011;64046;51.978;5.934;2023-04-01T04:26:57;5.05;;;3.40;;
75358;SDS011;64046;51.978;5.934;2023-04-01T04:29:26;4.68;;;3.55;;
75358;SDS011;64046;51.978;5.934;2023-04-01T04:31:56;4.72;;;3.47;;
75358;SDS011;64046;51.978;5.934;2023-04-01T04:34:25;5.25;;;3.88;;
75358;SDS011;64046;51.978;5.934;2023-04-01T04:36:54;5.43;;;4.13;;
75358;SDS011;64046;51.978;5.934;2023-04-01T04:39:27;5.63;;;4.13;;
75358;SDS011;64046;51.978;5.934;2023-04-01T04:41:59;4.03;;;3.63;;
75358;SDS011;64046;51.978;5.934;2023-04-01T04:44:29;7.07;;;4.03;;
75358;SDS011;64046;51.978;5.934;2023-04-01T04:47:00;5.30;;;3.78;;
75358;SDS011;64046;51.978;5.934;2023-04-01T04:49:29;5.75;;;4.55;;
75358;SDS011;64046;51.978;5.934;2023-04-01T04:52:04;6.35;;;3.92;;
75358;SDS011;64046;51.978;5.934;2023-04-01T04:54:34;4.10;;;3.70;;
75358;SDS011;64046;51.978;5.934;2023-04-01T04:57:06;7.47;;;5.65;;
75358;SDS011;64046;51.978;5.934;2023-04-01T04:59:44;6.10;;;4.38;;
75358;SDS011;64046;51.978;5.934;2023-04-01T05:02:22;6.55;;;4.82;;
75358;SDS011;64046;51.978;5.934;2023-04-01T05:04:51;6.40;;;5.03;;
75358;SDS011;64046;51.978;5.934;2023-04-01T05:07:20;5.38;;;4.22;;
75358;SDS011;64046;51.978;5.934;2023-04-01T05:09:49;6.38;;;4.80;;
75358;SDS011;64046;51.978;5.934;2023-04-01T05:12:21;6.45;;;4.53;;
75358;SDS011;64046;51.978;5.934;2023-04-01T05:14:57;5.47;;;4.40;;
75358;SDS011;64046;51.978;5.934;2023-04-01T05:17:26;6.45;;;5.20;;
75358;SDS011;64046;51.978;5.934;2023-04-01T05:19:56;7.50;;;5.45;;
75358;SDS011;64046;51.978;5.934;2023-04-01T05:22:25;8.18;;;5.63;;
75358;SDS011;64046;51.978;5.934;2023-04-01T05:24:55;7.85;;;5.00;;
75358;SDS011;64046;51.978;5.934;2023-04-01T05:27:27;8.45;;;4.82;;
75358;SDS011;64046;51.978;5.934;2023-04-01T05:29:56;5.63;;;5.03;;
75358;SDS011;64046;51.978;5.934;2023-04-01T05:32:39;6.03;;;4.60;;
75358;SDS011;64046;51.978;5.934;2023-04-01T05:35:09;8.27;;;6.10;;
75358;SDS011;64046;51.978;5.934;2023-04-01T05:37:38;7.82;;;5.65;;
75358;SDS011;64046;51.978;5.934;2023-04-01T05:40:08;9.23;;;6.40;;
75358;SDS011;64046;51.978;5.934;2023-04-01T05:42:41;7.03;;;5.25;;
75358;SDS011;64046;51.978;5.934;2023-04-01T05:45:11;6.50;;;5.05;;
75358;SDS011;64046;51.978;5.934;2023-04-01T05:48:00;6.75;;;5.20;;
75358;SDS011;64046;51.978;5.934;2023-04-01T05:50:34;8.52;;;6.28;;
75358;SDS011;64046;51.978;5.934;2023-04-01T05:53:04;7.95;;;5.38;;
75358;SDS011;64046;51.978;5.934;2023-04-01T05:55:34;6.80;;;5.45;;
75358;SDS011;64046;51.978;5.934;2023-04-01T05:58:06;6.00;;;4.60;;
75358;SDS011;64046;51.978;5.934;2023-04-01T06:00:38;6.90;;;5.07;;
75358;SDS011;64046;51.978;5.934;2023-04-01T06:03:07;7.35;;;4.90;;
75358;SDS011;64046;51.978;5.934;2023-04-01T06:05:38;6.63;;;4.90;;
75358;SDS011;64046;51.978;5.934;2023-04-01T06:08:10;7.38;;;4.70;;
75358;SDS011;64046;51.978;5.934;2023-04-01T06:10:44;9.00;;;5.50;;
75358;SDS011;64046;51.978;5.934;2023-04-01T06:13:29;8.88;;;4.95;;
75358;SDS011;64046;51.978;5.934;2023-04-01T06:16:11;9.85;;;5.57;;
75358;SDS011;64046;51.978;5.934;2023-04-01T06:18:52;11.30;;;6.25;;
75358;SDS011;64046;51.978;5.934;2023-04-01T06:21:45;11.32;;;6.82;;
75358;SDS011;64046;51.978;5.934;2023-04-01T06:24:33;10.82;;;6.50;;
75358;SDS011;64046;51.978;5.934;2023-04-01T06:27:14;11.77;;;6.93;;
75358;SDS011;64046;51.978;5.934;2023-04-01T06:29:57;12.75;;;7.15;;
75358;SDS011;64046;51.978;5.934;2023-04-01T06:32:46;16.65;;;8.18;;
75358;SDS011;64046;51.978;5.934;2023-04-01T06:35:42;16.10;;;8.43;;
75358;SDS011;64046;51.978;5.934;2023-04-01T06:38:27;14.18;;;7.18;;
75358;SDS011;64046;51.978;5.934;2023-04-01T06:44:19;18.65;;;8.27;;
75358;SDS011;64046;51.978;5.934;2023-04-01T06:47:33;14.57;;;7.82;;
75358;SDS011;64046;51.978;5.934;2023-04-01T06:50:48;16.95;;;7.18;;
75358;SDS011;64046;51.978;5.934;2023-04-01T06:53:42;13.90;;;7.78;;
75358;SDS011;64046;51.978;5.934;2023-04-01T06:56:42;14.88;;;7.50;;
75358;SDS011;64046;51.978;5.934;2023-04-01T06:59:22;16.58;;;6.32;;
75358;SDS011;64046;51.978;5.934;2023-04-01T07:01:55;13.60;;;6.85;;
75358;SDS011;64046;51.978;5.934;2023-04-01T07:04:30;10.38;;;5.60;;
75358;SDS011;64046;51.978;5.934;2023-04-01T07:07:04;11.10;;;5.63;;
75358;SDS011;64046;51.978;5.934;2023-04-01T07:09:51;11.00;;;5.85;;
75358;SDS011;64046;51.978;5.934;2023-04-01T07:12:33;10.68;;;5.35;;
75358;SDS011;64046;51.978;5.934;2023-04-01T07:15:33;10.50;;;5.65;;
75358;SDS011;64046;51.978;5.934;2023-04-01T07:18:10;9.90;;;5.45;;
75358;SDS011;64046;51.978;5.934;2023-04-01T07:20:47;6.85;;;4.32;;
75358;SDS011;64046;51.978;5.934;2023-04-01T07:23:20;5.88;;;3.70;;
75358;SDS011;64046;51.978;5.934;2023-04-01T07:26:16;7.03;;;3.78;;
75358;SDS011;64046;51.978;5.934;2023-04-01T07:28:53;7.35;;;3.20;;
75358;SDS011;64046;51.978;5.934;2023-04-01T07:31:37;6.88;;;2.95;;
75358;SDS011;64046;51.978;5.934;2023-04-01T07:34:19;4.88;;;2.88;;
75358;SDS011;64046;51.978;5.934;2023-04-01T07:36:58;4.93;;;2.75;;
75358;SDS011;64046;51.978;5.934;2023-04-01T07:39:35;3.85;;;2.47;;
75358;SDS011;64046;51.978;5.934;2023-04-01T07:42:18;4.80;;;2.92;;
75358;SDS011;64046;51.978;5.934;2023-04-01T07:44:59;4.05;;;2.17;;
75358;SDS011;64046;51.978;5.934;2023-04-01T07:47:40;3.20;;;2.17;;
75358;SDS011;64046;51.978;5.934;2023-04-01T07:50:18;5.05;;;2.47;;
75358;SDS011;64046;51.978;5.934;2023-04-01T07:52:59;3.85;;;2.65;;
75358;SDS011;64046;51.978;5.934;2023-04-01T07:55:39;4.85;;;2.50;;
75358;SDS011;64046;51.978;5.934;2023-04-01T07:58:14;3.83;;;2.17;;
75358;SDS011;64046;51.978;5.934;2023-04-01T08:00:51;3.83;;;2.30;;
75358;SDS011;64046;51.978;5.934;2023-04-01T08:03:40;3.05;;;2.05;;
75358;SDS011;64046;51.978;5.934;2023-04-01T08:06:27;3.70;;;2.38;;
75358;SDS011;64046;51.978;5.934;2023-04-01T08:09:05;2.95;;;2.00;;
75358;SDS011;64046;51.978;5.934;2023-04-01T08:12:15;2.95;;;1.67;;
75358;SDS011;64046;51.978;5.934;2023-04-01T08:15:05;1.95;;;1.40;;
75358;SDS011;64046;51.978;5.934;2023-04-01T08:18:01;3.17;;;2.10;;
75358;SDS011;64046;51.978;5.934;2023-04-01T08:20:37;2.85;;;2.20;;
75358;SDS011;64046;51.978;5.934;2023-04-01T08:23:12;3.25;;;2.22;;
75358;SDS011;64046;51.978;5.934;2023-04-01T08:25:48;3.60;;;2.20;;
75358;SDS011;64046;51.978;5.934;2023-04-01T08:28:26;3.63;;;2.30;;
75358;SDS011;64046;51.978;5.934;2023-04-01T08:31:07;2.78;;;1.92;;
75358;SDS011;64046;51.978;5.934;2023-04-01T08:33:43;4.70;;;2.10;;
75358;SDS011;64046;51.978;5.934;2023-04-01T08:36:15;4.95;;;2.47;;
75358;SDS011;64046;51.978;5.934;2023-04-01T08:39:09;2.38;;;1.80;;
75358;SDS011;64046;51.978;5.934;2023-04-01T08:48:04;2.90;;;2.00;;
75358;SDS011;64046;51.978;5.934;2023-04-01T08:51:01;1.58;;;1.10;;
75358;SDS011;64046;51.978;5.934;2023-04-01T08:53:50;1.33;;;1.05;;
75358;SDS011;64046;51.978;5.934;2023-04-01T08:56:33;2.50;;;0.98;;
75358;SDS011;64046;51.978;5.934;2023-04-01T08:59:18;1.30;;;1.10;;
75358;SDS011;64046;51.978;5.934;2023-04-01T09:05:05;4.57;;;1.33;;
75358;SDS011;64046;51.978;5.934;2023-04-01T09:07:54;1.02;;;0.90;;
75358;SDS011;64046;51.978;5.934;2023-04-01T09:10:38;2.30;;;1.27;;
75358;SDS011;64046;51.978;5.934;2023-04-01T09:16:45;1.52;;;1.10;;
75358;SDS011;64046;51.978;5.934;2023-04-01T09:19:59;1.17;;;1.08;;
75358;SDS011;64046;51.978;5.934;2023-04-01T09:22:50;1.27;;;0.95;;
75358;SDS011;64046;51.978;5.934;2023-04-01T09:28:34;1.80;;;1.30;;
75358;SDS011;64046;51.978;5.934;2023-04-01T09:31:14;1.65;;;1.20;;
75358;SDS011;64046;51.978;5.934;2023-04-01T09:34:25;1.90;;;1.40;;
75358;SDS011;64046;51.978;5.934;2023-04-01T09:37:20;2.00;;;1.40;;
75358;SDS011;64046;51.978;5.934;2023-04-01T09:43:01;1.90;;;1.42;;
75358;SDS011;64046;51.978;5.934;2023-04-01T09:45:47;3.30;;;1.38;;
75358;SDS011;64046;51.978;5.934;2023-04-01T09:51:37;1.88;;;1.40;;
75358;SDS011;64046;51.978;5.934;2023-04-01T09:54:23;1.98;;;1.35;;
75358;SDS011;64046;51.978;5.934;2023-04-01T09:57:16;3.97;;;1.42;;
75358;SDS011;64046;51.978;5.934;2023-04-01T10:00:22;4.30;;;1.70;;
75358;SDS011;64046;51.978;5.934;2023-04-01T10:09:14;2.25;;;1.70;;
75358;SDS011;64046;51.978;5.934;2023-04-01T10:12:17;2.55;;;1.85;;
75358;SDS011;64046;51.978;5.934;2023-04-01T10:15:12;3.70;;;2.10;;
75358;SDS011;64046;51.978;5.934;2023-04-01T10:18:15;4.50;;;2.25;;
75358;SDS011;64046;51.978;5.934;2023-04-01T10:21:25;3.70;;;2.70;;
75358;SDS011;64046;51.978;5.934;2023-04-01T10:24:16;3.75;;;2.45;;
75358;SDS011;64046;51.978;5.934;2023-04-01T10:30:40;3.70;;;2.75;;
75358;SDS011;64046;51.978;5.934;2023-04-01T10:36:52;4.80;;;3.22;;
75358;SDS011;64046;51.978;5.934;2023-04-01T10:43:28;4.28;;;3.00;;
75358;SDS011;64046;51.978;5.934;2023-04-01T10:46:19;4.13;;;3.05;;
75358;SDS011;64046;51.978;5.934;2023-04-01T10:52:31;5.38;;;3.38;;
75358;SDS011;64046;51.978;5.934;2023-04-01T11:15:10;7.60;;;5.20;;
75358;SDS011;64046;51.978;5.934;2023-04-01T11:18:08;7.25;;;5.05;;
75358;SDS011;64046;51.978;5.934;2023-04-01T11:24:09;5.63;;;4.38;;
75358;SDS011;64046;51.978;5.934;2023-04-01T11:27:22;6.60;;;4.22;;
75358;SDS011;64046;51.978;5.934;2023-04-01T11:30:10;8.05;;;5.20;;
75358;SDS011;64046;51.978;5.934;2023-04-01T11:32:52;4.47;;;3.17;;
75358;SDS011;64046;51.978;5.934;2023-04-01T11:35:36;2.75;;;1.63;;
75358;SDS011;64046;51.978;5.934;2023-04-01T11:38:22;2.17;;;1.50;;
75358;SDS011;64046;51.978;5.934;2023-04-01T11:41:27;1.55;;;1.08;;
75358;SDS011;64046;51.978;5.934;2023-04-01T11:44:39;1.50;;;1.08;;
75358;SDS011;64046;51.978;5.934;2023-04-01T11:47:37;1.67;;;1.17;;
75358;SDS011;64046;51.978;5.934;2023-04-01T11:50:24;2.05;;;1.45;;
75358;SDS011;64046;51.978;5.934;2023-04-01T11:53:10;1.95;;;1.50;;
75358;SDS011;64046;51.978;5.934;2023-04-01T11:55:54;3.10;;;1.52;;
75358;SDS011;64046;51.978;5.934;2023-04-01T11:58:36;1.58;;;1.35;;
75358;SDS011;64046;51.978;5.934;2023-04-01T12:01:33;2.13;;;1.20;;
75358;SDS011;64046;51.978;5.934;2023-04-01T12:04:19;1.35;;;1.00;;
75358;SDS011;64046;51.978;5.934;2023-04-01T12:07:12;1.70;;;1.27;;
75358;SDS011;64046;51.978;5.934;2023-04-01T12:09:49;2.15;;;1.20;;
75358;SDS011;64046;51.978;5.934;2023-04-01T12:12:29;2.55;;;1.20;;
75358;SDS011;64046;51.978;5.934;2023-04-01T12:15:12;1.90;;;1.30;;
75358;SDS011;64046;51.978;5.934;2023-04-01T12:17:52;2.42;;;1.70;;
75358;SDS011;64046;51.978;5.934;2023-04-01T12:20:33;2.15;;;1.50;;
75358;SDS011;64046;51.978;5.934;2023-04-01T12:23:16;3.88;;;1.50;;
75358;SDS011;64046;51.978;5.934;2023-04-01T12:26:07;2.75;;;1.52;;
75358;SDS011;64046;51.978;5.934;2023-04-01T12:28:54;2.10;;;1.38;;
75358;SDS011;64046;51.978;5.934;2023-04-01T12:31:38;2.00;;;1.40;;
75358;SDS011;64046;51.978;5.934;2023-04-01T12:34:26;1.90;;;1.50;;
75358;SDS011;64046;51.978;5.934;2023-04-01T12:37:13;2.05;;;1.60;;
75358;SDS011;64046;51.978;5.934;2023-04-01T12:42:55;2.40;;;1.70;;
75358;SDS011;64046;51.978;5.934;2023-04-01T12:45:33;2.65;;;2.00;;
75358;SDS011;64046;51.978;5.934;2023-04-01T12:51:12;2.58;;;1.65;;
75358;SDS011;64046;51.978;5.934;2023-04-01T12:57:15;2.97;;;1.70;;
75358;SDS011;64046;51.978;5.934;2023-04-01T13:03:09;2.08;;;1.30;;
75358;SDS011;64046;51.978;5.934;2023-04-01T13:06:00;2.95;;;1.65;;
75358;SDS011;64046;51.978;5.934;2023-04-01T13:09:00;2.05;;;1.73;;
75358;SDS011;64046;51.978;5.934;2023-04-01T13:11:46;2.15;;;1.60;;
75358;SDS011;64046;51.978;5.934;2023-04-01T13:17:26;1.88;;;1.40;;
75358;SDS011;64046;51.978;5.934;2023-04-01T13:20:02;1.95;;;1.42;;
75358;SDS011;64046;51.978;5.934;2023-04-01T13:22:45;1.92;;;1.52;;
75358;SDS011;64046;51.978;5.934;2023-04-01T13:25:30;2.88;;;1.65;;
75358;SDS011;64046;51.978;5.934;2023-04-01T13:28:10;2.65;;;1.85;;
75358;SDS011;64046;51.978;5.934;2023-04-01T13:30:46;2.58;;;1.60;;
75358;SDS011;64046;51.978;5.934;2023-04-01T13:33:25;1.75;;;1.40;;
75358;SDS011;64046;51.978;5.934;2023-04-01T13:36:03;1.75;;;1.40;;
75358;SDS011;64046;51.978;5.934;2023-04-01T13:38:48;2.60;;;1.73;;
75358;SDS011;64046;51.978;5.934;2023-04-01T13:41:38;1.40;;;1.27;;
75358;SDS011;64046;51.978;5.934;2023-04-01T13:44:20;1.38;;;1.13;;
75358;SDS011;64046;51.978;5.934;2023-04-01T13:47:05;1.70;;;0.93;;
75358;SDS011;64046;51.978;5.934;2023-04-01T13:52:56;1.17;;;0.90;;
75358;SDS011;64046;51.978;5.934;2023-04-01T13:55:48;1.23;;;0.85;;
75358;SDS011;64046;51.978;5.934;2023-04-01T13:58:49;1.20;;;1.00;;
75358;SDS011;64046;51.978;5.934;2023-04-01T14:01:38;2.55;;;1.10;;
75358;SDS011;64046;51.978;5.934;2023-04-01T14:04:18;2.33;;;1.27;;
75358;SDS011;64046;51.978;5.934;2023-04-01T14:07:04;1.15;;;0.98;;
75358;SDS011;64046;51.978;5.934;2023-04-01T14:09:48;1.85;;;1.30;;
75358;SDS011;64046;51.978;5.934;2023-04-01T14:12:38;2.75;;;1.40;;
75358;SDS011;64046;51.978;5.934;2023-04-01T14:15:27;1.65;;;1.38;;
75358;SDS011;64046;51.978;5.934;2023-04-01T14:18:11;1.88;;;1.50;;
75358;SDS011;64046;51.978;5.934;2023-04-01T14:20:51;2.72;;;1.90;;
75358;SDS011;64046;51.978;5.934;2023-04-01T14:26:35;2.92;;;1.45;;
75358;SDS011;64046;51.978;5.934;2023-04-01T14:29:36;3.35;;;1.42;;
75358;SDS011;64046;51.978;5.934;2023-04-01T14:32:16;5.07;;;2.25;;
75358;SDS011;64046;51.978;5.934;2023-04-01T14:35:00;3.20;;;2.05;;
75358;SDS011;64046;51.978;5.934;2023-04-01T14:37:54;2.75;;;1.98;;
75358;SDS011;64046;51.978;5.934;2023-04-01T14:40:38;2.58;;;1.90;;
75358;SDS011;64046;51.978;5.934;2023-04-01T14:43:21;2.33;;;1.77;;
75358;SDS011;64046;51.978;5.934;2023-04-01T14:46:11;2.08;;;1.70;;
75358;SDS011;64046;51.978;5.934;2023-04-01T14:48:56;5.85;;;3.55;;
75358;SDS011;64046;51.978;5.934;2023-04-01T14:51:29;4.45;;;3.10;;
75358;SDS011;64046;51.978;5.934;2023-04-01T14:54:04;1.52;;;1.30;;
75358;SDS011;64046;51.978;5.934;2023-04-01T14:56:43;2.05;;;1.48;;
75358;SDS011;64046;51.978;5.934;2023-04-01T14:59:25;3.17;;;1.30;;
75358;SDS011;64046;51.978;5.934;2023-04-01T15:01:58;3.35;;;1.33;;
75358;SDS011;64046;51.978;5.934;2023-04-01T15:04:41;1.40;;;1.10;;
75358;SDS011;64046;51.978;5.934;2023-04-01T15:07:21;2.03;;;1.10;;
75358;SDS011;64046;51.978;5.934;2023-04-01T15:10:12;1.50;;;1.10;;
75358;SDS011;64046;51.978;5.934;2023-04-01T15:12:54;1.50;;;1.10;;
75358;SDS011;64046;51.978;5.934;2023-04-01T15:15:35;2.75;;;1.20;;
75358;SDS011;64046;51.978;5.934;2023-04-01T15:18:18;1.73;;;1.30;;
75358;SDS011;64046;51.978;5.934;2023-04-01T15:23:56;3.00;;;1.55;;
75358;SDS011;64046;51.978;5.934;2023-04-01T15:32:21;3.10;;;1.70;;
75358;SDS011;64046;51.978;5.934;2023-04-01T15:34:57;4.25;;;2.38;;
75358;SDS011;64046;51.978;5.934;2023-04-01T15:37:37;3.42;;;2.20;;
75358;SDS011;64046;51.978;5.934;2023-04-01T15:40:16;3.42;;;2.63;;
75358;SDS011;64046;51.978;5.934;2023-04-01T15:42:53;5.20;;;3.05;;
75358;SDS011;64046;51.978;5.934;2023-04-01T15:45:37;3.10;;;2.63;;
75358;SDS011;64046;51.978;5.934;2023-04-01T15:48:20;3.42;;;2.92;;
75358;SDS011;64046;51.978;5.934;2023-04-01T15:51:12;3.75;;;3.05;;
75358;SDS011;64046;51.978;5.934;2023-04-01T15:54:00;3.80;;;2.95;;
75358;SDS011;64046;51.978;5.934;2023-04-01T15:56:51;3.17;;;2.65;;
75358;SDS011;64046;51.978;5.934;2023-04-01T15:59:41;3.10;;;2.67;;
75358;SDS011;64046;51.978;5.934;2023-04-01T16:02:21;2.92;;;2.63;;
75358;SDS011;64046;51.978;5.934;2023-04-01T16:04:57;3.00;;;2.42;;
75358;SDS011;64046;51.978;5.934;2023-04-01T16:13:28;4.13;;;3.40;;
75358;SDS011;64046;51.978;5.934;2023-04-01T16:16:10;3.13;;;2.63;;
75358;SDS011;64046;51.978;5.934;2023-04-01T16:21:49;4.05;;;3.10;;
75358;SDS011;64046;51.978;5.934;2023-04-01T16:24:23;3.33;;;2.92;;
75358;SDS011;64046;51.978;5.934;2023-04-01T16:27:02;2.90;;;2.60;;
75358;SDS011;64046;51.978;5.934;2023-04-01T16:29:38;4.75;;;3.42;;
75358;SDS011;64046;51.978;5.934;2023-04-01T16:32:18;3.05;;;2.63;;
75358;SDS011;64046;51.978;5.934;2023-04-01T16:35:01;3.33;;;2.88;;
75358;SDS011;64046;51.978;5.934;2023-04-01T16:37:53;3.13;;;2.72;;
75358;SDS011;64046;51.978;5.934;2023-04-01T16:40:34;3.25;;;2.72;;
75358;SDS011;64046;51.978;5.934;2023-04-01T16:43:15;3.97;;;2.55;;
75358;SDS011;64046;51.978;5.934;2023-04-01T16:45:55;3.20;;;2.70;;
75358;SDS011;64046;51.978;5.934;2023-04-01T16:48:45;4.40;;;3.42;;
75358;SDS011;64046;51.978;5.934;2023-04-01T16:51:33;3.33;;;2.78;;
75358;SDS011;64046;51.978;5.934;2023-04-01T16:54:10;10.57;;;3.28;;
75358;SDS011;64046;51.978;5.934;2023-04-01T16:56:47;3.17;;;2.50;;
75358;SDS011;64046;51.978;5.934;2023-04-01T16:59:26;4.07;;;3.58;;
75358;SDS011;64046;51.978;5.934;2023-04-01T17:02:02;3.85;;;3.33;;
75358;SDS011;64046;51.978;5.934;2023-04-01T17:04:41;3.00;;;2.60;;
75358;SDS011;64046;51.978;5.934;2023-04-01T17:07:16;4.05;;;2.90;;
75358;SDS011;64046;51.978;5.934;2023-04-01T17:13:14;5.25;;;3.20;;
75358;SDS011;64046;51.978;5.934;2023-04-01T17:16:03;4.18;;;3.50;;
75358;SDS011;64046;51.978;5.934;2023-04-01T17:18:44;4.03;;;3.60;;
75358;SDS011;64046;51.978;5.934;2023-04-01T17:21:25;5.40;;;3.88;;
75358;SDS011;64046;51.978;5.934;2023-04-01T17:24:00;3.60;;;3.08;;
75358;SDS011;64046;51.978;5.934;2023-04-01T17:26:42;5.47;;;4.10;;
75358;SDS011;64046;51.978;5.934;2023-04-01T17:29:21;3.45;;;3.08;;
75358;SDS011;64046;51.978;5.934;2023-04-01T17:32:01;5.85;;;3.40;;
75358;SDS011;64046;51.978;5.934;2023-04-01T17:34:46;3.58;;;2.95;;
75358;SDS011;64046;51.978;5.934;2023-04-01T17:37:28;3.80;;;3.40;;
75358;SDS011;64046;51.978;5.934;2023-04-01T17:43:12;4.60;;;3.47;;
75358;SDS011;64046;51.978;5.934;2023-04-01T17:45:52;4.40;;;3.55;;
75358;SDS011;64046;51.978;5.934;2023-04-01T17:48:34;3.80;;;3.10;;
75358;SDS011;64046;51.978;5.934;2023-04-01T17:51:13;4.50;;;3.88;;
75358;SDS011;64046;51.978;5.934;2023-04-01T17:53:54;4.20;;;3.53;;
75358;SDS011;64046;51.978;5.934;2023-04-01T17:56:31;3.60;;;3.15;;
75358;SDS011;64046;51.978;5.934;2023-04-01T17:59:10;4.00;;;3.60;;
75358;SDS011;64046;51.978;5.934;2023-04-01T18:01:52;5.18;;;3.35;;